createdAt,value
2019-06-01T00:07:10.417Z,13.60
2019-06-01T00:13:01.095Z,12.40
2019-06-01T00:18:36.123Z,12.53
2019-06-01T00:25:04.422Z,11.03
2019-06-01T01:31:14.572Z,10.03
2019-06-01T01:34:03.104Z,11.05
2019-06-01T01:37:14.031Z,9.85
2019-06-01T01:39:33.435Z,10.43
2019-06-01T01:42:02.329Z,11.08
2019-06-01T01:44:35.846Z,10.53
2019-06-01T01:47:03.926Z,10.40
2019-06-01T01:49:44.819Z,10.75
2019-06-01T01:52:25.351Z,11.83
2019-06-01T01:55:03.264Z,10.90
2019-06-01T01:57:55.585Z,10.82
2019-06-01T02:00:33.382Z,11.48
2019-06-01T02:03:03.399Z,11.25
2019-06-01T02:05:56.998Z,10.53
2019-06-01T02:08:33.074Z,11.03
2019-06-01T02:15:00.526Z,10.60
2019-06-01T02:17:32.682Z,32.33
2019-06-01T02:20:02.630Z,11.10
2019-06-01T02:22:38.328Z,10.98
2019-06-01T02:31:04.466Z,10.87
2019-06-01T02:33:39.870Z,11.18
2019-06-01T02:36:13.044Z,12.15
2019-06-01T02:38:56.510Z,12.10
2019-06-01T02:41:54.854Z,11.65
2019-06-01T02:50:22.976Z,11.80
2019-06-01T02:53:29.391Z,12.82
2019-06-01T02:56:13.175Z,12.78
2019-06-01T02:58:50.012Z,12.03
2019-06-01T03:01:34.876Z,12.23
2019-06-01T03:04:18.091Z,11.73
2019-06-01T03:07:16.537Z,12.50
2019-06-01T03:10:05.308Z,11.05
2019-06-01T03:12:35.546Z,10.55
2019-06-01T03:15:15.043Z,10.85
2019-06-01T03:17:57.185Z,10.93
2019-06-01T03:20:41.492Z,11.10
2019-06-01T03:23:15.660Z,9.93
2019-06-01T03:26:40.242Z,9.93
2019-06-01T03:37:47.867Z,13.40
2019-06-01T03:40:31.301Z,13.03
2019-06-01T03:46:21.074Z,15.10
2019-06-01T03:52:08.890Z,16.42
2019-06-01T03:54:59.211Z,17.23
2019-06-01T04:13:40.458Z,16.45
2019-06-01T04:28:56.422Z,15.53
2019-06-01T05:01:57.787Z,12.15
2019-06-01T05:08:15.599Z,9.63
2019-06-01T05:28:36.080Z,7.62
2019-06-01T05:30:09.459Z,7.40
2019-06-01T06:11:01.569Z,7.35
2019-06-01T06:53:37.134Z,4.80
2019-06-01T07:07:19.915Z,4.45
2019-06-01T08:27:00.739Z,5.25
2019-06-01T08:29:56.224Z,5.17
2019-06-01T08:33:08.868Z,5.53
2019-06-01T08:35:59.364Z,6.12
2019-06-01T08:38:45.300Z,4.87
2019-06-01T08:41:40.298Z,5.00
2019-06-01T08:44:16.553Z,4.80
2019-06-01T08:47:32.023Z,5.30
2019-06-01T08:50:02.751Z,5.30
2019-06-01T08:59:42.855Z,4.95
2019-06-01T09:17:41.709Z,5.28
2019-06-01T09:25:21.975Z,4.10
2019-06-01T09:27:51.661Z,4.70
2019-06-01T09:41:07.593Z,4.03
2019-06-01T09:47:45.570Z,4.60
2019-06-01T09:49:21.907Z,4.17
2019-06-01T09:55:51.500Z,5.87
2019-06-01T10:09:09.095Z,13.35
2019-06-01T10:15:09.622Z,4.08
2019-06-01T10:17:44.376Z,4.30
2019-06-01T10:20:16.436Z,5.05
2019-06-01T10:22:48.648Z,4.95
2019-06-01T10:25:23.969Z,4.83
2019-06-01T10:27:55.889Z,4.50
2019-06-01T10:30:37.933Z,5.25
2019-06-01T10:33:00.723Z,4.10
2019-06-01T10:35:30.668Z,4.30
2019-06-01T10:38:01.545Z,4.30
2019-06-01T10:40:33.399Z,4.28
2019-06-01T10:43:03.925Z,4.15
2019-06-01T10:45:33.565Z,4.05
2019-06-01T10:48:02.342Z,4.30
2019-06-01T10:50:34.876Z,4.33
2019-06-01T10:53:05.112Z,3.70
2019-06-01T10:55:34.110Z,4.15
2019-06-01T10:58:04.466Z,4.60
2019-06-01T11:00:43.582Z,4.08
2019-06-01T11:03:08.442Z,3.60
2019-06-01T11:05:37.145Z,4.03
2019-06-01T11:08:05.785Z,3.80
2019-06-01T11:10:38.927Z,3.70
2019-06-01T11:13:08.415Z,3.50
2019-06-01T11:15:41.240Z,3.67
2019-06-01T11:18:39.643Z,28.47
2019-06-01T11:20:53.736Z,4.35
2019-06-01T11:23:24.023Z,3.50
2019-06-01T11:25:55.625Z,2.87
2019-06-01T11:28:27.347Z,2.60
2019-06-01T11:30:58.387Z,3.22
2019-06-01T11:33:28.076Z,3.05
2019-06-01T11:35:59.471Z,3.33
2019-06-01T11:38:31.164Z,2.90
2019-06-01T11:41:01.410Z,3.52
2019-06-01T11:43:30.481Z,2.92
2019-06-01T11:46:01.772Z,3.30
2019-06-01T11:48:35.119Z,3.50
2019-06-01T11:51:09.290Z,3.15
2019-06-01T11:53:43.344Z,2.40
2019-06-01T11:56:29.691Z,2.90
2019-06-01T11:59:03.188Z,2.80
2019-06-01T12:01:35.600Z,3.42
2019-06-01T12:04:12.518Z,2.90
2019-06-01T12:06:51.742Z,3.22
2019-06-01T12:09:26.667Z,2.98
2019-06-01T12:12:10.722Z,2.90
2019-06-01T12:14:46.713Z,2.90
2019-06-01T12:17:23.600Z,3.10
2019-06-01T12:20:08.380Z,3.00
2019-06-01T12:23:00.418Z,4.62
2019-06-01T12:25:46.265Z,3.40
2019-06-01T12:28:44.025Z,2.80
2019-06-01T12:31:11.662Z,3.15
2019-06-01T12:33:48.666Z,3.20
2019-06-01T12:36:30.793Z,2.77
2019-06-01T12:39:00.533Z,3.00
2019-06-01T12:41:31.010Z,3.87
2019-06-01T12:44:20.518Z,3.52
2019-06-01T12:46:58.047Z,3.60
2019-06-01T12:49:30.014Z,3.05
2019-06-01T12:52:06.649Z,3.20
2019-06-01T12:57:35.192Z,2.95
2019-06-01T13:00:10.613Z,2.98
2019-06-01T13:02:46.351Z,4.08
2019-06-01T13:05:13.837Z,4.60
2019-06-01T13:08:01.839Z,6.40
2019-06-01T13:10:29.439Z,3.37
2019-06-01T13:12:58.211Z,3.33
2019-06-01T13:15:28.305Z,2.90
2019-06-01T13:17:56.871Z,2.87
2019-06-01T13:20:25.438Z,3.08
2019-06-01T13:22:54.983Z,2.95
2019-06-01T13:25:23.614Z,2.87
2019-06-01T13:27:52.571Z,3.05
2019-06-01T13:30:27.074Z,3.02
2019-06-01T13:32:58.467Z,3.10
2019-06-01T13:42:27.541Z,3.22
2019-06-01T13:45:08.070Z,3.27
2019-06-01T13:47:36.670Z,3.27
2019-06-01T13:53:10.299Z,4.58
2019-06-01T13:55:38.892Z,4.40
2019-06-01T14:01:27.858Z,6.85
2019-06-01T14:03:56.852Z,4.55
2019-06-01T14:06:25.458Z,4.55
2019-06-01T14:08:57.192Z,5.58
2019-06-01T14:11:25.770Z,4.25
2019-06-01T14:13:57.026Z,4.30
2019-06-01T14:16:32.435Z,4.50
2019-06-01T14:25:18.523Z,4.30
2019-06-01T14:28:43.639Z,6.97
2019-06-01T14:31:10.828Z,5.17
2019-06-01T14:40:11.922Z,7.20
2019-06-01T14:43:00.756Z,4.72
2019-06-01T14:48:33.987Z,4.97
2019-06-01T15:11:37.621Z,3.10
2019-06-01T15:20:20.342Z,2.77
2019-06-01T15:46:29.927Z,2.80
2019-06-01T15:56:08.163Z,2.90
2019-06-01T16:04:01.639Z,3.00
2019-06-01T16:14:30.122Z,3.25
2019-06-01T16:20:27.682Z,3.00
2019-06-01T16:26:24.892Z,3.27
2019-06-01T16:32:25.285Z,4.70
2019-06-01T16:38:35.041Z,4.80
2019-06-01T16:44:11.283Z,6.53
2019-06-01T16:46:41.415Z,3.52
2019-06-01T16:49:13.391Z,4.87
2019-06-01T16:51:59.060Z,3.40
2019-06-01T16:54:30.183Z,3.00
2019-06-01T16:57:05.361Z,3.27
2019-06-01T16:59:30.589Z,3.30
2019-06-01T17:02:00.837Z,3.10
2019-06-01T17:04:29.678Z,3.30
2019-06-01T17:06:58.676Z,4.05
2019-06-01T17:09:29.489Z,3.30
2019-06-01T17:12:01.043Z,3.42
2019-06-01T17:14:30.372Z,4.35
2019-06-01T17:17:23.111Z,3.20
2019-06-01T17:32:32.226Z,2.70
2019-06-01T17:35:18.835Z,3.33
2019-06-01T17:40:38.416Z,2.70
2019-06-01T17:43:10.382Z,2.58
2019-06-01T17:45:40.999Z,2.70
2019-06-01T17:48:26.590Z,2.50
2019-06-01T17:50:50.111Z,3.25
2019-06-01T17:53:20.341Z,2.83
2019-06-01T17:55:49.043Z,3.30
2019-06-01T17:58:19.697Z,3.15
2019-06-01T18:00:48.582Z,2.90
2019-06-01T18:03:18.978Z,3.10
2019-06-01T18:05:53.789Z,2.80
2019-06-01T18:08:49.906Z,3.12
2019-06-01T18:23:21.597Z,2.70
2019-06-01T18:31:33.804Z,3.67
2019-06-01T18:40:27.688Z,2.62
2019-06-01T18:43:03.639Z,2.62
2019-06-01T18:45:37.240Z,2.60
2019-06-01T18:48:08.368Z,2.45
2019-06-01T18:50:46.298Z,2.20
2019-06-01T18:53:22.697Z,2.58
2019-06-01T18:55:52.818Z,2.52
2019-06-01T18:58:22.896Z,3.72
2019-06-01T19:00:51.329Z,2.90
2019-06-01T19:03:19.783Z,2.25
2019-06-01T19:05:48.383Z,2.77
2019-06-01T19:08:17.894Z,2.72
2019-06-01T19:10:46.982Z,2.52
2019-06-01T19:13:16.627Z,2.00
2019-06-01T19:15:45.290Z,2.50
2019-06-01T19:18:14.592Z,2.50
2019-06-01T19:20:44.417Z,2.10
2019-06-01T19:23:13.042Z,1.95
2019-06-01T19:25:47.749Z,1.92
2019-06-01T19:28:17.518Z,2.10
2019-06-01T19:30:46.357Z,1.90
2019-06-01T19:33:18.968Z,2.35
2019-06-01T19:35:48.752Z,2.27
2019-06-01T19:41:57.932Z,2.30
2019-06-01T19:48:08.226Z,1.90
2019-06-01T19:54:19.932Z,2.47
2019-06-01T19:56:50.379Z,2.25
2019-06-01T19:59:19.595Z,2.40
2019-06-01T20:01:49.167Z,2.40
2019-06-01T20:04:20.325Z,2.08
2019-06-01T20:09:40.249Z,2.25
2019-06-01T20:12:16.620Z,2.40
2019-06-01T20:17:34.519Z,2.45
2019-06-01T20:20:10.742Z,4.00
2019-06-01T20:22:46.438Z,3.15
2019-06-01T20:25:19.603Z,2.92
2019-06-01T20:27:56.200Z,3.27
2019-06-01T20:33:56.341Z,6.20
2019-06-01T20:36:30.229Z,29.95
2019-06-01T20:39:08.181Z,4.00
2019-06-01T20:41:41.799Z,4.75
2019-06-01T20:44:24.342Z,4.05
2019-06-01T20:47:01.796Z,3.92
2019-06-01T20:49:33.328Z,3.35
2019-06-01T21:01:29.948Z,3.15
2019-06-01T21:07:40.033Z,3.45
2019-06-01T21:13:53.980Z,3.22
2019-06-01T21:26:38.867Z,3.50
2019-06-01T21:36:19.457Z,3.67
2019-06-01T21:41:54.979Z,3.50
2019-06-01T21:47:56.358Z,3.52
2019-06-01T21:56:44.389Z,3.87
2019-06-01T21:59:31.073Z,3.80
2019-06-01T22:02:03.611Z,3.30
2019-06-01T22:04:45.682Z,3.77
2019-06-01T22:19:21.602Z,3.95
2019-06-01T22:54:56.510Z,7.45
2019-06-01T23:03:16.252Z,5.90
2019-06-01T23:05:44.808Z,6.40
2019-06-01T23:08:14.522Z,6.35
2019-06-01T23:10:44.985Z,6.10
2019-06-01T23:13:14.499Z,6.40
2019-06-01T23:15:43.306Z,5.80
2019-06-01T23:18:12.872Z,6.12
2019-06-01T23:20:41.454Z,5.83
2019-06-01T23:23:11.119Z,5.83
2019-06-01T23:25:40.188Z,6.37
2019-06-01T23:28:08.755Z,6.35
2019-06-01T23:30:38.358Z,6.53
2019-06-01T23:33:07.072Z,6.45
2019-06-01T23:35:35.807Z,6.35
2019-06-01T23:38:04.350Z,6.65
2019-06-01T23:40:33.006Z,6.87
2019-06-01T23:43:02.633Z,6.85
2019-06-01T23:45:32.971Z,7.22
2019-06-01T23:51:30.287Z,7.15
2019-06-01T23:57:16.360Z,7.47
